sensor_id;sensor_type;location;lat;lon;timestamp;temperature;humidity
20035;DHT22;10178;48.034;9.800;2023-03-23T00:00:53;12.40;99.90
20035;DHT22;10178;48.034;9.800;2023-03-23T00:03:20;12.40;99.90
20035;DHT22;10178;48.034;9.800;2023-03-23T00:05:47;12.40;99.90
20035;DHT22;10178;48.034;9.800;2023-03-23T00:08:21;12.40;99.90
20035;DHT22;10178;48.034;9.800;2023-03-23T00:10:50;12.40;99.90
20035;DHT22;10178;48.034;9.800;2023-03-23T00:13:26;12.40;99.90
20035;DHT22;10178;48.034;9.800;2023-03-23T00:15:52;12.30;99.90
20035;DHT22;10178;48.034;9.800;2023-03-23T00:18:20;12.30;99.90
20035;DHT22;10178;48.034;9.800;2023-03-23T00:20:54;12.20;99.90
20035;DHT22;10178;48.034;9.800;2023-03-23T00:23:23;12.20;99.90
20035;DHT22;10178;48.034;9.800;2023-03-23T00:25:55;12.20;99.90
20035;DHT22;10178;48.034;9.800;2023-03-23T00:28:25;12.20;99.90
20035;DHT22;10178;48.034;9.800;2023-03-23T00:31:00;12.20;99.90
20035;DHT22;10178;48.034;9.800;2023-03-23T00:33:28;12.20;99.90
20035;DHT22;10178;48.034;9.800;2023-03-23T00:35:54;12.20;99.90
20035;DHT22;10178;48.034;9.800;2023-03-23T00:38:22;12.20;99.90
20035;DHT22;10178;48.034;9.800;2023-03-23T00:40:49;12.20;99.90
20035;DHT22;10178;48.034;9.800;2023-03-23T00:43:16;12.10;99.90
20035;DHT22;10178;48.034;9.800;2023-03-23T00:45:42;12.10;99.90
20035;DHT22;10178;48.034;9.800;2023-03-23T00:48:10;12.10;99.90
20035;DHT22;10178;48.034;9.800;2023-03-23T00:50:38;12.10;99.90
20035;DHT22;10178;48.034;9.800;2023-03-23T00:53:04;12.00;99.90
20035;DHT22;10178;48.034;9.800;2023-03-23T00:55:29;12.00;99.90
20035;DHT22;10178;48.034;9.800;2023-03-23T00:57:56;12.00;99.90
20035;DHT22;10178;48.034;9.800;2023-03-23T01:00:22;12.00;99.90
20035;DHT22;10178;48.034;9.800;2023-03-23T01:02:48;12.00;99.90
20035;DHT22;10178;48.034;9.800;2023-03-23T01:05:17;12.00;99.90
20035;DHT22;10178;48.034;9.800;2023-03-23T01:07:42;12.00;99.90
20035;DHT22;10178;48.034;9.800;2023-03-23T01:10:10;11.90;99.90
20035;DHT22;10178;48.034;9.800;2023-03-23T01:12:38;12.00;99.90
20035;DHT22;10178;48.034;9.800;2023-03-23T01:15:05;12.00;99.90
20035;DHT22;10178;48.034;9.800;2023-03-23T01:17:31;12.00;99.90
20035;DHT22;10178;48.034;9.800;2023-03-23T01:19:57;12.00;99.90
20035;DHT22;10178;48.034;9.800;2023-03-23T01:22:23;12.00;99.90
20035;DHT22;10178;48.034;9.800;2023-03-23T01:24:48;12.00;99.90
20035;DHT22;10178;48.034;9.800;2023-03-23T01:27:14;11.90;99.90
20035;DHT22;10178;48.034;9.800;2023-03-23T01:29:39;11.60;99.90
20035;DHT22;10178;48.034;9.800;2023-03-23T01:32:05;10.00;99.90
20035;DHT22;10178;48.034;9.800;2023-03-23T01:34:31;9.50;99.90
20035;DHT22;10178;48.034;9.800;2023-03-23T01:36:56;10.00;99.90
20035;DHT22;10178;48.034;9.800;2023-03-23T01:39:22;10.50;99.90
20035;DHT22;10178;48.034;9.800;2023-03-23T01:41:48;11.00;99.90
20035;DHT22;10178;48.034;9.800;2023-03-23T01:46:43;10.60;99.90
20035;DHT22;10178;48.034;9.800;2023-03-23T01:49:15;10.20;99.90
20035;DHT22;10178;48.034;9.800;2023-03-23T01:51:53;9.60;99.90
20035;DHT22;10178;48.034;9.800;2023-03-23T01:54:22;9.10;99.90
20035;DHT22;10178;48.034;9.800;2023-03-23T01:57:03;8.80;99.90
20035;DHT22;10178;48.034;9.800;2023-03-23T01:59:31;8.70;99.90
20035;DHT22;10178;48.034;9.800;2023-03-23T02:01:57;8.60;99.90
20035;DHT22;10178;48.034;9.800;2023-03-23T02:04:24;8.50;99.90
20035;DHT22;10178;48.034;9.800;2023-03-23T02:06:51;8.50;99.90
20035;DHT22;10178;48.034;9.800;2023-03-23T02:09:18;8.40;99.90
20035;DHT22;10178;48.034;9.800;2023-03-23T02:11:45;8.70;99.90
20035;DHT22;10178;48.034;9.800;2023-03-23T02:14:11;9.30;99.90
20035;DHT22;10178;48.034;9.800;2023-03-23T02:25:39;11.00;99.90
20035;DHT22;10178;48.034;9.800;2023-03-23T02:34:02;10.70;99.90
20035;DHT22;10178;48.034;9.800;2023-03-23T02:39:09;10.10;99.90
20035;DHT22;10178;48.034;9.800;2023-03-23T02:41:57;10.20;99.90
20035;DHT22;10178;48.034;9.800;2023-03-23T02:44:24;10.20;99.90
20035;DHT22;10178;48.034;9.800;2023-03-23T02:46:53;9.50;99.90
20035;DHT22;10178;48.034;9.800;2023-03-23T02:49:19;9.20;99.90
20035;DHT22;10178;48.034;9.800;2023-03-23T02:51:47;9.20;99.90
20035;DHT22;10178;48.034;9.800;2023-03-23T02:54:15;9.90;99.90
20035;DHT22;10178;48.034;9.800;2023-03-23T02:56:42;10.20;99.90
20035;DHT22;10178;48.034;9.800;2023-03-23T02:59:08;9.50;99.90
20035;DHT22;10178;48.034;9.800;2023-03-23T03:04:13;9.70;99.90
20035;DHT22;10178;48.034;9.800;2023-03-23T03:09:36;10.40;99.90
20035;DHT22;10178;48.034;9.800;2023-03-23T03:12:59;9.80;99.90
20035;DHT22;10178;48.034;9.800;2023-03-23T03:20:46;10.40;99.90
20035;DHT22;10178;48.034;9.800;2023-03-23T03:23:15;9.80;99.90
20035;DHT22;10178;48.034;9.800;2023-03-23T03:25:41;9.80;99.90
20035;DHT22;10178;48.034;9.800;2023-03-23T03:28:21;9.00;99.90
20035;DHT22;10178;48.034;9.800;2023-03-23T03:30:54;9.10;99.90
20035;DHT22;10178;48.034;9.800;2023-03-23T03:33:22;8.70;99.90
20035;DHT22;10178;48.034;9.800;2023-03-23T03:35:51;8.70;99.90
20035;DHT22;10178;48.034;9.800;2023-03-23T03:38:17;8.90;99.90
20035;DHT22;10178;48.034;9.800;2023-03-23T03:40:43;9.10;99.90
20035;DHT22;10178;48.034;9.800;2023-03-23T03:43:08;9.70;99.90
20035;DHT22;10178;48.034;9.800;2023-03-23T03:45:34;10.20;99.90
20035;DHT22;10178;48.034;9.800;2023-03-23T03:48:00;10.30;99.90
20035;DHT22;10178;48.034;9.800;2023-03-23T03:50:27;10.30;99.90
20035;DHT22;10178;48.034;9.800;2023-03-23T03:52:53;10.10;99.90
20035;DHT22;10178;48.034;9.800;2023-03-23T03:55:19;10.20;99.90
20035;DHT22;10178;48.034;9.800;2023-03-23T03:57:44;10.10;99.90
20035;DHT22;10178;48.034;9.800;2023-03-23T04:00:11;9.80;99.90
20035;DHT22;10178;48.034;9.800;2023-03-23T04:02:49;10.10;99.90
20035;DHT22;10178;48.034;9.800;2023-03-23T04:05:21;10.00;99.90
20035;DHT22;10178;48.034;9.800;2023-03-23T04:07:46;9.60;99.90
20035;DHT22;10178;48.034;9.800;2023-03-23T04:10:15;9.80;99.90
20035;DHT22;10178;48.034;9.800;2023-03-23T04:12:41;10.40;99.90
20035;DHT22;10178;48.034;9.800;2023-03-23T04:15:07;10.70;99.90
20035;DHT22;10178;48.034;9.800;2023-03-23T04:17:33;11.00;99.90
20035;DHT22;10178;48.034;9.800;2023-03-23T04:19:59;11.30;99.90
20035;DHT22;10178;48.034;9.800;2023-03-23T04:22:26;11.40;99.90
20035;DHT22;10178;48.034;9.800;2023-03-23T04:24:59;11.40;99.90
20035;DHT22;10178;48.034;9.800;2023-03-23T04:27:26;11.50;99.90
20035;DHT22;10178;48.034;9.800;2023-03-23T04:29:54;11.60;99.90
20035;DHT22;10178;48.034;9.800;2023-03-23T04:32:20;11.60;99.90
20035;DHT22;10178;48.034;9.800;2023-03-23T04:34:46;11.70;99.90
20035;DHT22;10178;48.034;9.800;2023-03-23T04:37:12;11.70;99.90
20035;DHT22;10178;48.034;9.800;2023-03-23T04:39:39;11.80;99.90
20035;DHT22;10178;48.034;9.800;2023-03-23T04:42:05;11.90;99.90
20035;DHT22;10178;48.034;9.800;2023-03-23T04:44:31;11.90;99.90
20035;DHT22;10178;48.034;9.800;2023-03-23T04:47:00;12.00;99.90
20035;DHT22;10178;48.034;9.800;2023-03-23T04:49:26;12.10;99.90
20035;DHT22;10178;48.034;9.800;2023-03-23T04:51:52;12.10;99.90
20035;DHT22;10178;48.034;9.800;2023-03-23T04:54:17;12.20;99.90
20035;DHT22;10178;48.034;9.800;2023-03-23T04:56:43;12.30;99.90
20035;DHT22;10178;48.034;9.800;2023-03-23T04:59:09;12.40;99.90
20035;DHT22;10178;48.034;9.800;2023-03-23T05:01:34;12.40;99.90
20035;DHT22;10178;48.034;9.800;2023-03-23T05:04:03;12.40;99.90
20035;DHT22;10178;48.034;9.800;2023-03-23T05:06:28;12.30;99.90
20035;DHT22;10178;48.034;9.800;2023-03-23T05:08:54;12.30;99.90
20035;DHT22;10178;48.034;9.800;2023-03-23T05:11:20;12.30;99.90
20035;DHT22;10178;48.034;9.800;2023-03-23T05:13:46;12.30;99.90
20035;DHT22;10178;48.034;9.800;2023-03-23T05:16:12;12.40;99.90
20035;DHT22;10178;48.034;9.800;2023-03-23T05:18:37;12.50;99.90
20035;DHT22;10178;48.034;9.800;2023-03-23T05:21:03;12.60;99.90
20035;DHT22;10178;48.034;9.800;2023-03-23T05:23:29;12.50;99.90
20035;DHT22;10178;48.034;9.800;2023-03-23T05:25:57;12.50;99.90
20035;DHT22;10178;48.034;9.800;2023-03-23T05:28:27;12.40;99.90
20035;DHT22;10178;48.034;9.800;2023-03-23T05:30:54;12.40;99.90
20035;DHT22;10178;48.034;9.800;2023-03-23T05:33:21;12.40;99.90
20035;DHT22;10178;48.034;9.800;2023-03-23T05:35:47;12.50;99.90
20035;DHT22;10178;48.034;9.800;2023-03-23T05:38:14;12.60;99.90
20035;DHT22;10178;48.034;9.800;2023-03-23T05:40:40;12.70;99.90
20035;DHT22;10178;48.034;9.800;2023-03-23T05:43:07;12.70;99.90
20035;DHT22;10178;48.034;9.800;2023-03-23T05:45:33;12.70;99.90
20035;DHT22;10178;48.034;9.800;2023-03-23T05:47:59;12.70;99.90
20035;DHT22;10178;48.034;9.800;2023-03-23T05:50:25;12.70;99.90
20035;DHT22;10178;48.034;9.800;2023-03-23T05:52:50;12.70;99.90
20035;DHT22;10178;48.034;9.800;2023-03-23T05:55:17;12.60;99.90
20035;DHT22;10178;48.034;9.800;2023-03-23T05:57:43;12.60;99.90
20035;DHT22;10178;48.034;9.800;2023-03-23T06:00:09;12.60;99.90
20035;DHT22;10178;48.034;9.800;2023-03-23T06:02:46;12.60;99.90
20035;DHT22;10178;48.034;9.800;2023-03-23T06:05:13;12.60;99.90
20035;DHT22;10178;48.034;9.800;2023-03-23T06:07:39;12.70;99.90
20035;DHT22;10178;48.034;9.800;2023-03-23T06:10:06;12.80;99.90
20035;DHT22;10178;48.034;9.800;2023-03-23T06:12:32;12.70;99.90
20035;DHT22;10178;48.034;9.800;2023-03-23T06:14:58;12.70;99.90
20035;DHT22;10178;48.034;9.800;2023-03-23T06:17:24;12.60;99.90
20035;DHT22;10178;48.034;9.800;2023-03-23T06:19:50;12.50;99.90
20035;DHT22;10178;48.034;9.800;2023-03-23T06:22:17;12.50;99.90
20035;DHT22;10178;48.034;9.800;2023-03-23T06:24:43;12.20;99.90
20035;DHT22;10178;48.034;9.800;2023-03-23T06:27:09;12.10;99.90
20035;DHT22;10178;48.034;9.800;2023-03-23T06:29:35;12.10;99.90
20035;DHT22;10178;48.034;9.800;2023-03-23T06:32:04;11.90;99.90
20035;DHT22;10178;48.034;9.800;2023-03-23T06:34:30;11.90;99.90
20035;DHT22;10178;48.034;9.800;2023-03-23T06:36:57;11.80;99.90
20035;DHT22;10178;48.034;9.800;2023-03-23T06:39:24;11.70;99.90
20035;DHT22;10178;48.034;9.800;2023-03-23T06:41:50;11.80;99.90
20035;DHT22;10178;48.034;9.800;2023-03-23T06:44:16;11.90;99.90
20035;DHT22;10178;48.034;9.800;2023-03-23T06:46:42;11.90;99.90
20035;DHT22;10178;48.034;9.800;2023-03-23T06:49:08;12.00;99.90
20035;DHT22;10178;48.034;9.800;2023-03-23T06:51:35;12.00;99.90
20035;DHT22;10178;48.034;9.800;2023-03-23T06:54:01;12.00;99.90
20035;DHT22;10178;48.034;9.800;2023-03-23T06:56:27;12.00;99.90
20035;DHT22;10178;48.034;9.800;2023-03-23T06:58:53;12.00;99.90
20035;DHT22;10178;48.034;9.800;2023-03-23T07:01:19;12.00;99.90
20035;DHT22;10178;48.034;9.800;2023-03-23T07:03:45;12.00;99.90
20035;DHT22;10178;48.034;9.800;2023-03-23T07:06:11;12.10;99.90
20035;DHT22;10178;48.034;9.800;2023-03-23T07:08:37;12.10;99.90
20035;DHT22;10178;48.034;9.800;2023-03-23T07:11:03;12.20;99.90
20035;DHT22;10178;48.034;9.800;2023-03-23T07:13:28;12.30;99.90
20035;DHT22;10178;48.034;9.800;2023-03-23T07:15:54;12.40;99.90
20035;DHT22;10178;48.034;9.800;2023-03-23T07:18:20;12.40;99.90
20035;DHT22;10178;48.034;9.800;2023-03-23T07:20:50;12.50;99.90
20035;DHT22;10178;48.034;9.800;2023-03-23T07:23:16;12.50;99.90
20035;DHT22;10178;48.034;9.800;2023-03-23T07:25:43;12.40;99.90
20035;DHT22;10178;48.034;9.800;2023-03-23T07:28:11;12.50;99.90
20035;DHT22;10178;48.034;9.800;2023-03-23T07:31:00;12.50;99.90
20035;DHT22;10178;48.034;9.800;2023-03-23T07:33:32;12.50;99.90
20035;DHT22;10178;48.034;9.800;2023-03-23T07:36:40;12.40;99.90
20035;DHT22;10178;48.034;9.800;2023-03-23T07:39:28;12.50;99.90
20035;DHT22;10178;48.034;9.800;2023-03-23T07:41:57;12.50;99.90
20035;DHT22;10178;48.034;9.800;2023-03-23T07:44:25;12.60;99.90
20035;DHT22;10178;48.034;9.800;2023-03-23T07:47:03;12.60;99.90
20035;DHT22;10178;48.034;9.800;2023-03-23T07:49:32;12.60;99.90
20035;DHT22;10178;48.034;9.800;2023-03-23T07:52:05;12.50;99.90
20035;DHT22;10178;48.034;9.800;2023-03-23T07:54:34;12.60;99.90
20035;DHT22;10178;48.034;9.800;2023-03-23T07:57:01;12.60;99.90
20035;DHT22;10178;48.034;9.800;2023-03-23T07:59:30;12.80;99.90
20035;DHT22;10178;48.034;9.800;2023-03-23T08:02:01;12.80;99.90
20035;DHT22;10178;48.034;9.800;2023-03-23T08:04:30;12.80;99.90
20035;DHT22;10178;48.034;9.800;2023-03-23T08:07:24;12.80;99.90
20035;DHT22;10178;48.034;9.800;2023-03-23T08:10:09;12.90;99.90
20035;DHT22;10178;48.034;9.800;2023-03-23T08:13:12;12.80;99.90
20035;DHT22;10178;48.034;9.800;2023-03-23T08:16:13;12.80;99.90
20035;DHT22;10178;48.034;9.800;2023-03-23T08:19:19;12.80;99.90
20035;DHT22;10178;48.034;9.800;2023-03-23T08:22:16;12.80;99.90
20035;DHT22;10178;48.034;9.800;2023-03-23T08:25:25;12.80;99.90
20035;DHT22;10178;48.034;9.800;2023-03-23T08:28:36;12.90;99.90
20035;DHT22;10178;48.034;9.800;2023-03-23T08:31:08;12.90;99.90
20035;DHT22;10178;48.034;9.800;2023-03-23T08:33:37;12.90;99.90
20035;DHT22;10178;48.034;9.800;2023-03-23T08:36:29;12.90;99.90
20035;DHT22;10178;48.034;9.800;2023-03-23T08:39:26;13.10;99.90
20035;DHT22;10178;48.034;9.800;2023-03-23T08:45:05;13.40;99.90
20035;DHT22;10178;48.034;9.800;2023-03-23T08:59:31;13.90;99.90
20035;DHT22;10178;48.034;9.800;2023-03-23T09:03:11;13.90;99.90
20035;DHT22;10178;48.034;9.800;2023-03-23T09:06:16;13.80;99.90
20035;DHT22;10178;48.034;9.800;2023-03-23T09:09:32;13.80;99.90
20035;DHT22;10178;48.034;9.800;2023-03-23T09:13:25;14.00;99.90
20035;DHT22;10178;48.034;9.800;2023-03-23T09:16:37;14.10;99.90
20035;DHT22;10178;48.034;9.800;2023-03-23T09:20:13;14.10;99.90
20035;DHT22;10178;48.034;9.800;2023-03-23T09:27:01;14.20;99.90
20035;DHT22;10178;48.034;9.800;2023-03-23T09:30:47;14.30;99.90
20035;DHT22;10178;48.034;9.800;2023-03-23T09:34:17;14.40;99.90
20035;DHT22;10178;48.034;9.800;2023-03-23T09:36:58;14.40;99.90
20035;DHT22;10178;48.034;9.800;2023-03-23T09:39:33;14.30;99.90
20035;DHT22;10178;48.034;9.800;2023-03-23T09:48:49;14.20;99.90
20035;DHT22;10178;48.034;9.800;2023-03-23T09:56:46;14.40;99.90
20035;DHT22;10178;48.034;9.800;2023-03-23T10:05:49;14.70;99.90
20035;DHT22;10178;48.034;9.800;2023-03-23T10:08:29;14.60;99.90
20035;DHT22;10178;48.034;9.800;2023-03-23T10:11:34;14.60;99.90
20035;DHT22;10178;48.034;9.800;2023-03-23T10:23:05;14.00;99.90
20035;DHT22;10178;48.034;9.800;2023-03-23T10:28:44;13.90;99.90
20035;DHT22;10178;48.034;9.800;2023-03-23T10:31:32;14.10;99.90
20035;DHT22;10178;48.034;9.800;2023-03-23T10:34:24;14.20;99.90
20035;DHT22;10178;48.034;9.800;2023-03-23T10:54:45;15.20;99.90
20035;DHT22;10178;48.034;9.800;2023-03-23T11:26:28;15.10;99.90
20035;DHT22;10178;48.034;9.800;2023-03-23T11:29:34;15.20;99.90
20035;DHT22;10178;48.034;9.800;2023-03-23T11:36:00;15.20;99.90
20035;DHT22;10178;48.034;9.800;2023-03-23T11:38:43;15.10;99.90
20035;DHT22;10178;48.034;9.800;2023-03-23T11:52:59;14.80;99.90
20035;DHT22;10178;48.034;9.800;2023-03-23T11:59:01;15.00;99.90
20035;DHT22;10178;48.034;9.800;2023-03-23T12:12:54;15.70;99.90
20035;DHT22;10178;48.034;9.800;2023-03-23T12:26:24;15.20;99.90
20035;DHT22;10178;48.034;9.800;2023-03-23T12:46:41;15.10;99.90
20035;DHT22;10178;48.034;9.800;2023-03-23T12:52:14;15.30;99.90
20035;DHT22;10178;48.034;9.800;2023-03-23T12:55:02;15.40;99.90
20035;DHT22;10178;48.034;9.800;2023-03-23T13:06:46;15.60;99.90
20035;DHT22;10178;48.034;9.800;2023-03-23T13:12:21;15.50;99.90
20035;DHT22;10178;48.034;9.800;2023-03-23T13:23:35;15.60;99.90
20035;DHT22;10178;48.034;9.800;2023-03-23T13:26:24;15.60;99.90
20035;DHT22;10178;48.034;9.800;2023-03-23T13:31:47;15.30;99.90
20035;DHT22;10178;48.034;9.800;2023-03-23T13:34:17;15.30;99.90
20035;DHT22;10178;48.034;9.800;2023-03-23T13:42:34;15.10;99.90
20035;DHT22;10178;48.034;9.800;2023-03-23T13:50:56;15.10;99.90
20035;DHT22;10178;48.034;9.800;2023-03-23T13:53:47;15.10;99.90
20035;DHT22;10178;48.034;9.800;2023-03-23T13:56:21;15.20;99.90
20035;DHT22;10178;48.034;9.800;2023-03-23T13:58:50;15.20;99.90
20035;DHT22;10178;48.034;9.800;2023-03-23T14:01:19;15.00;99.90
20035;DHT22;10178;48.034;9.800;2023-03-23T14:03:59;15.00;99.90
20035;DHT22;10178;48.034;9.800;2023-03-23T14:06:26;15.00;99.90
20035;DHT22;10178;48.034;9.800;2023-03-23T14:09:10;15.10;99.90
20035;DHT22;10178;48.034;9.800;2023-03-23T14:11:59;15.00;99.90
20035;DHT22;10178;48.034;9.800;2023-03-23T14:14:33;15.00;99.90
20035;DHT22;10178;48.034;9.800;2023-03-23T14:19:39;15.00;99.90
20035;DHT22;10178;48.034;9.800;2023-03-23T14:22:28;15.00;99.90
20035;DHT22;10178;48.034;9.800;2023-03-23T14:25:14;15.00;99.90
20035;DHT22;10178;48.034;9.800;2023-03-23T14:27:40;15.00;99.90
20035;DHT22;10178;48.034;9.800;2023-03-23T14:30:14;15.00;99.90
20035;DHT22;10178;48.034;9.800;2023-03-23T14:32:40;15.00;99.90
20035;DHT22;10178;48.034;9.800;2023-03-23T14:35:27;14.90;99.90
20035;DHT22;10178;48.034;9.800;2023-03-23T14:37:55;14.90;99.90
20035;DHT22;10178;48.034;9.800;2023-03-23T14:40:22;14.90;99.90
20035;DHT22;10178;48.034;9.800;2023-03-23T14:42:49;14.80;99.90
20035;DHT22;10178;48.034;9.800;2023-03-23T14:45:17;14.70;99.90
20035;DHT22;10178;48.034;9.800;2023-03-23T14:47:49;14.80;99.90
20035;DHT22;10178;48.034;9.800;2023-03-23T14:50:40;14.80;99.90
20035;DHT22;10178;48.034;9.800;2023-03-23T14:53:32;14.70;99.90
20035;DHT22;10178;48.034;9.800;2023-03-23T14:56:01;14.70;99.90
20035;DHT22;10178;48.034;9.800;2023-03-23T14:58:28;14.70;99.90
20035;DHT22;10178;48.034;9.800;2023-03-23T15:01:10;14.70;99.90
20035;DHT22;10178;48.034;9.800;2023-03-23T15:03:49;14.70;99.90
20035;DHT22;10178;48.034;9.800;2023-03-23T15:06:17;14.70;99.90
20035;DHT22;10178;48.034;9.800;2023-03-23T15:08:45;14.70;99.90
20035;DHT22;10178;48.034;9.800;2023-03-23T15:13:48;14.60;99.90
20035;DHT22;10178;48.034;9.800;2023-03-23T15:16:25;14.60;99.90
20035;DHT22;10178;48.034;9.800;2023-03-23T15:19:15;14.70;99.90
20035;DHT22;10178;48.034;9.800;2023-03-23T15:22:27;14.60;99.90
20035;DHT22;10178;48.034;9.800;2023-03-23T15:25:09;14.60;99.90
20035;DHT22;10178;48.034;9.800;2023-03-23T15:27:44;14.60;99.90
20035;DHT22;10178;48.034;9.800;2023-03-23T15:32:45;14.60;99.90
20035;DHT22;10178;48.034;9.800;2023-03-23T15:35:15;14.60;99.90
20035;DHT22;10178;48.034;9.800;2023-03-23T15:37:56;14.60;99.90
20035;DHT22;10178;48.034;9.800;2023-03-23T15:40:24;14.60;99.90
20035;DHT22;10178;48.034;9.800;2023-03-23T15:43:14;14.60;99.90
20035;DHT22;10178;48.034;9.800;2023-03-23T15:45:55;14.60;99.90
20035;DHT22;10178;48.034;9.800;2023-03-23T15:48:22;14.60;99.90
20035;DHT22;10178;48.034;9.800;2023-03-23T15:50:49;14.50;99.90
20035;DHT22;10178;48.034;9.800;2023-03-23T15:53:25;14.60;99.90
20035;DHT22;10178;48.034;9.800;2023-03-23T15:55:51;14.60;99.90
20035;DHT22;10178;48.034;9.800;2023-03-23T15:58:17;14.60;99.90
20035;DHT22;10178;48.034;9.800;2023-03-23T16:00:43;14.60;99.90
20035;DHT22;10178;48.034;9.800;2023-03-23T16:03:18;14.50;99.90
20035;DHT22;10178;48.034;9.800;2023-03-23T16:05:45;14.50;99.90
20035;DHT22;10178;48.034;9.800;2023-03-23T16:08:11;14.50;99.90
20035;DHT22;10178;48.034;9.800;2023-03-23T16:10:37;14.50;99.90
20035;DHT22;10178;48.034;9.800;2023-03-23T16:13:02;14.40;99.90
20035;DHT22;10178;48.034;9.800;2023-03-23T16:15:30;14.30;99.90
20035;DHT22;10178;48.034;9.800;2023-03-23T16:17:55;14.30;99.90
20035;DHT22;10178;48.034;9.800;2023-03-23T16:20:22;14.20;99.90
20035;DHT22;10178;48.034;9.800;2023-03-23T16:22:49;14.20;99.90
20035;DHT22;10178;48.034;9.800;2023-03-23T16:25:16;14.20;99.90
20035;DHT22;10178;48.034;9.800;2023-03-23T16:27:43;14.20;99.90
20035;DHT22;10178;48.034;9.800;2023-03-23T16:30:18;14.20;99.90
20035;DHT22;10178;48.034;9.800;2023-03-23T16:32:44;14.20;99.90
20035;DHT22;10178;48.034;9.800;2023-03-23T16:35:12;14.10;99.90
20035;DHT22;10178;48.034;9.800;2023-03-23T16:37:38;14.10;99.90
20035;DHT22;10178;48.034;9.800;2023-03-23T16:40:05;14.10;99.90
20035;DHT22;10178;48.034;9.800;2023-03-23T16:42:31;14.20;99.90
20035;DHT22;10178;48.034;9.800;2023-03-23T16:44:57;14.10;99.90
20035;DHT22;10178;48.034;9.800;2023-03-23T16:47:23;14.00;99.90
20035;DHT22;10178;48.034;9.800;2023-03-23T16:49:50;14.00;99.90
20035;DHT22;10178;48.034;9.800;2023-03-23T16:52:17;14.00;99.90
20035;DHT22;10178;48.034;9.800;2023-03-23T16:54:43;14.00;99.90
20035;DHT22;10178;48.034;9.800;2023-03-23T16:57:10;14.00;99.90
20035;DHT22;10178;48.034;9.800;2023-03-23T16:59:36;13.90;99.90
20035;DHT22;10178;48.034;9.800;2023-03-23T17:02:01;14.00;99.90
20035;DHT22;10178;48.034;9.800;2023-03-23T17:04:29;13.90;99.90
20035;DHT22;10178;48.034;9.800;2023-03-23T17:06:55;13.90;99.90
20035;DHT22;10178;48.034;9.800;2023-03-23T17:09:24;13.90;99.90
20035;DHT22;10178;48.034;9.800;2023-03-23T17:11:50;13.80;99.90
20035;DHT22;10178;48.034;9.800;2023-03-23T17:14:16;13.80;99.90
20035;DHT22;10178;48.034;9.800;2023-03-23T17:16:41;13.80;99.90
20035;DHT22;10178;48.034;9.800;2023-03-23T17:19:07;13.70;99.90
20035;DHT22;10178;48.034;9.800;2023-03-23T17:21:33;13.70;99.90
20035;DHT22;10178;48.034;9.800;2023-03-23T17:23:58;13.70;99.90
20035;DHT22;10178;48.034;9.800;2023-03-23T17:26:24;13.60;99.90
20035;DHT22;10178;48.034;9.800;2023-03-23T17:28:50;13.60;99.90
20035;DHT22;10178;48.034;9.800;2023-03-23T17:31:15;13.60;99.90
20035;DHT22;10178;48.034;9.800;2023-03-23T17:33:41;13.60;99.90
20035;DHT22;10178;48.034;9.800;2023-03-23T17:36:07;13.50;99.90
20035;DHT22;10178;48.034;9.800;2023-03-23T17:38:32;13.50;99.90
20035;DHT22;10178;48.034;9.800;2023-03-23T17:40:59;13.50;99.90
20035;DHT22;10178;48.034;9.800;2023-03-23T17:43:26;13.50;99.90
20035;DHT22;10178;48.034;9.800;2023-03-23T17:45:51;13.40;99.90
20035;DHT22;10178;48.034;9.800;2023-03-23T17:48:17;13.40;99.90
20035;DHT22;10178;48.034;9.800;2023-03-23T17:50:46;13.40;99.90
20035;DHT22;10178;48.034;9.800;2023-03-23T17:53:12;13.40;99.90
20035;DHT22;10178;48.034;9.800;2023-03-23T17:55:38;13.50;99.90
20035;DHT22;10178;48.034;9.800;2023-03-23T17:58:07;13.50;99.90
20035;DHT22;10178;48.034;9.800;2023-03-23T18:00:33;13.50;99.90
20035;DHT22;10178;48.034;9.800;2023-03-23T18:02:59;13.50;99.90
20035;DHT22;10178;48.034;9.800;2023-03-23T18:05:24;13.50;99.90
20035;DHT22;10178;48.034;9.800;2023-03-23T18:07:52;13.50;99.90
20035;DHT22;10178;48.034;9.800;2023-03-23T18:10:18;13.40;99.90
20035;DHT22;10178;48.034;9.800;2023-03-23T18:12:43;13.50;99.90
20035;DHT22;10178;48.034;9.800;2023-03-23T18:15:10;13.50;99.90
20035;DHT22;10178;48.034;9.800;2023-03-23T18:17:35;13.50;99.90
20035;DHT22;10178;48.034;9.800;2023-03-23T18:20:02;13.50;99.90
20035;DHT22;10178;48.034;9.800;2023-03-23T18:22:27;13.50;99.90
20035;DHT22;10178;48.034;9.800;2023-03-23T18:24:53;13.40;99.90
20035;DHT22;10178;48.034;9.800;2023-03-23T18:27:19;13.50;99.90
20035;DHT22;10178;48.034;9.800;2023-03-23T18:29:45;13.50;99.90
20035;DHT22;10178;48.034;9.800;2023-03-23T18:32:11;13.60;99.90
20035;DHT22;10178;48.034;9.800;2023-03-23T18:34:39;13.60;99.90
20035;DHT22;10178;48.034;9.800;2023-03-23T18:37:05;13.60;99.90
20035;DHT22;10178;48.034;9.800;2023-03-23T18:39:32;13.70;99.90
20035;DHT22;10178;48.034;9.800;2023-03-23T18:42:02;13.50;99.90
20035;DHT22;10178;48.034;9.800;2023-03-23T18:44:28;13.50;99.90
20035;DHT22;10178;48.034;9.800;2023-03-23T18:46:54;13.50;99.90
20035;DHT22;10178;48.034;9.800;2023-03-23T18:49:24;13.50;99.90
20035;DHT22;10178;48.034;9.800;2023-03-23T18:51:50;13.50;99.90
20035;DHT22;10178;48.034;9.800;2023-03-23T18:54:16;13.50;99.90
20035;DHT22;10178;48.034;9.800;2023-03-23T18:56:42;13.50;99.90
20035;DHT22;10178;48.034;9.800;2023-03-23T18:59:07;13.50;99.90
20035;DHT22;10178;48.034;9.800;2023-03-23T19:01:33;13.50;99.90
20035;DHT22;10178;48.034;9.800;2023-03-23T19:03:59;13.50;99.90
20035;DHT22;10178;48.034;9.800;2023-03-23T19:06:25;13.50;99.90
20035;DHT22;10178;48.034;9.800;2023-03-23T19:08:52;13.50;99.90
20035;DHT22;10178;48.034;9.800;2023-03-23T19:11:21;13.60;99.90
20035;DHT22;10178;48.034;9.800;2023-03-23T19:13:49;13.80;99.90
20035;DHT22;10178;48.034;9.800;2023-03-23T19:16:15;13.80;99.90
20035;DHT22;10178;48.034;9.800;2023-03-23T19:18:41;13.80;99.90
20035;DHT22;10178;48.034;9.800;2023-03-23T19:21:07;13.80;99.90
20035;DHT22;10178;48.034;9.800;2023-03-23T19:23:32;13.90;99.90
20035;DHT22;10178;48.034;9.800;2023-03-23T19:25:58;13.90;99.90
20035;DHT22;10178;48.034;9.800;2023-03-23T19:28:24;14.00;99.90
20035;DHT22;10178;48.034;9.800;2023-03-23T19:30:54;14.10;99.90
20035;DHT22;10178;48.034;9.800;2023-03-23T19:33:20;14.20;99.90
20035;DHT22;10178;48.034;9.800;2023-03-23T19:35:50;14.30;99.90
20035;DHT22;10178;48.034;9.800;2023-03-23T19:38:18;14.20;99.90
20035;DHT22;10178;48.034;9.800;2023-03-23T19:40:53;14.10;99.90
20035;DHT22;10178;48.034;9.800;2023-03-23T19:43:19;14.00;99.90
20035;DHT22;10178;48.034;9.800;2023-03-23T19:45:47;14.00;99.90
20035;DHT22;10178;48.034;9.800;2023-03-23T19:48:12;14.00;99.90
20035;DHT22;10178;48.034;9.800;2023-03-23T19:50:38;14.00;99.90
20035;DHT22;10178;48.034;9.800;2023-03-23T19:53:04;14.00;99.90